Shirley P. Settoon — WDF9252 — position and weather

sailwx.info

Track history (hours):
 
Tides and Currents Weather Stations Pressure Air Temp Water Temp Dewpoint Dewpoint Depression Visibility Wind Speed Wind Dir Waves Ship Positions

Shirley P. Settoon

Owner: Settoon Towing, LLC, Houma, LA. More information available from US FCC via Universal Licensing System and Coast Guard Vessel Documentation Center.

Last reported at 2014-Dec-09 12:25 UTC. Time now 2014-Dec-22 12:46 UTC.
Position N 29°59' W 090°50'.
Warning: this ship's position is 13 days out of date.

Length 32 m.

Type: Towing. MMSI: 367503240.

Date/timePositionNaut miles runAvg speedWind from/ knotsBaromVisibWave heightAir tempDewpointWater temp
2014-Dec-09 12:25N 29°59' W 090°50'0 0.0
2014-Dec-09 10:26N 29°59' W 090°50'0 0.0
2014-Dec-09 09:30N 29°59' W 090°50'0 0.0
2014-Dec-09 08:32N 29°59' W 090°50'2 0.1
2014-Dec-08 01:31N 29°60' W 090°48'33 4.1
2014-Dec-07 17:24N 29°57' W 090°10'4 4.6
2014-Dec-07 16:33N 29°55' W 090°06'5 4.9
2014-Dec-07 15:33N 29°57' W 090°01'7 4.4
2014-Dec-07 14:05N 29°52' W 089°56'  
2014-Dec-05 00:29N 29°57' W 090°01'7 7.3
2014-Dec-04 23:33N 29°55' W 090°08'  
2014-Dec-02 09:33N 29°59' W 090°50'  
Track history (hours):
 
Tides and Currents Weather Stations Pressure Air Temp Water Temp Dewpoint Dewpoint Depression Visibility Wind Speed Wind Dir Waves Ship Positions

Shirley P. Settoon

Owner: Settoon Towing, LLC, Houma, LA. More information available from US FCC via Universal Licensing System and Coast Guard Vessel Documentation Center.

Last reported at 2014-Dec-09 12:25 UTC. Time now 2014-Dec-22 12:46 UTC.
Position N 29°59' W 090°50'.
Warning: this ship's position is 13 days out of date.

Length 32 m.

Type: Towing. MMSI: 367503240.

Date/timePositionNaut miles runAvg speedWind from/ knotsBaromVisibWave heightAir tempDewpointWater temp
2014-Dec-09 12:25N 29°59' W 090°50'0 0.0
2014-Dec-09 10:26N 29°59' W 090°50'0 0.0
2014-Dec-09 09:30N 29°59' W 090°50'0 0.0
2014-Dec-09 08:32N 29°59' W 090°50'2 0.1
2014-Dec-08 01:31N 29°60' W 090°48'33 4.1
2014-Dec-07 17:24N 29°57' W 090°10'4 4.6
2014-Dec-07 16:33N 29°55' W 090°06'5 4.9
2014-Dec-07 15:33N 29°57' W 090°01'7 4.4
2014-Dec-07 14:05N 29°52' W 089°56'  
2014-Dec-05 00:29N 29°57' W 090°01'7 7.3
2014-Dec-04 23:33N 29°55' W 090°08'  
2014-Dec-02 09:33N 29°59' W 090°50'  

Dump ship's entire track history